createdAt,value
2023-05-21T08:01:13.931Z,500.00
2023-05-21T08:02:13.912Z,500.00
2023-05-21T08:03:14.033Z,500.00
2023-05-21T08:04:14.086Z,500.00
2023-05-21T08:05:14.012Z,500.00
2023-05-21T08:06:13.894Z,500.00
2023-05-21T08:07:13.874Z,400.00
2023-05-21T08:08:13.908Z,400.00
2023-05-21T08:09:13.858Z,400.00
2023-05-21T08:10:13.868Z,400.00
2023-05-21T08:11:13.853Z,400.00
2023-05-21T08:12:13.844Z,400.00
2023-05-21T08:13:13.832Z,400.00
2023-05-21T08:14:13.825Z,400.00
2023-05-21T08:15:13.855Z,400.00
2023-05-21T08:16:13.820Z,400.00
2023-05-21T08:17:13.842Z,400.00
2023-05-21T08:18:13.849Z,400.00
2023-05-21T08:19:13.924Z,400.00
2023-05-21T08:20:13.820Z,400.00
2023-05-21T08:21:13.810Z,400.00
2023-05-21T08:22:13.820Z,400.00
2023-05-21T08:23:13.774Z,400.00
2023-05-21T08:24:13.784Z,400.00
2023-05-21T08:25:13.777Z,400.00
2023-05-21T08:26:13.801Z,400.00
2023-05-21T08:27:13.887Z,400.00
2023-05-21T08:28:13.907Z,400.00
2023-05-21T08:29:13.983Z,400.00
2023-05-21T08:30:14.044Z,400.00
2023-05-21T08:31:14.104Z,400.00
2023-05-21T08:32:14.352Z,400.00
2023-05-21T08:33:14.247Z,400.00
2023-05-21T08:34:14.318Z,430.00
2023-05-21T08:35:14.341Z,469.00
2023-05-21T08:36:14.475Z,502.00
2023-05-21T08:37:14.469Z,504.00
2023-05-21T08:38:14.526Z,502.00
2023-05-21T08:39:14.546Z,500.00
2023-05-21T08:40:14.638Z,500.00
2023-05-21T08:41:14.676Z,502.00
2023-05-21T08:42:22.535Z,496.00
2023-05-21T08:43:15.722Z,496.00
2023-05-21T08:44:14.710Z,486.00
2023-05-21T08:45:14.722Z,484.00
2023-05-21T08:46:14.893Z,471.00
2023-05-21T08:47:14.718Z,470.00
2023-05-21T08:48:14.686Z,500.00
2023-05-21T08:49:14.709Z,503.00
2023-05-21T08:50:14.685Z,503.00
2023-05-21T08:51:14.678Z,501.00
2023-05-21T08:52:14.748Z,504.00
2023-05-21T08:53:24.067Z,500.00
2023-05-21T08:54:15.794Z,500.00
2023-05-21T08:55:14.772Z,500.00
2023-05-21T08:56:14.778Z,495.00
2023-05-21T08:57:14.747Z,484.00
2023-05-21T08:58:14.762Z,480.00
2023-05-21T08:59:14.745Z,509.00
2023-05-21T09:00:14.732Z,500.00
2023-05-21T09:01:14.740Z,501.00
2023-05-21T09:02:14.721Z,501.00
2023-05-21T09:03:14.889Z,501.00
2023-05-21T09:04:20.926Z,501.00
2023-05-21T09:05:15.960Z,501.00
2023-05-21T09:06:14.796Z,501.00
2023-05-21T09:07:14.760Z,497.00
2023-05-21T09:08:14.770Z,488.00
2023-05-21T09:09:14.770Z,484.00
2023-05-21T09:10:14.798Z,501.00
2023-05-21T09:11:14.745Z,502.00
2023-05-21T09:12:14.753Z,500.00
2023-05-21T09:13:14.731Z,504.00
2023-05-21T09:14:14.745Z,503.00
2023-05-21T09:15:14.798Z,505.00
2023-05-21T09:16:14.864Z,506.00
2023-05-21T09:17:14.905Z,501.00
2023-05-21T09:18:15.016Z,511.00
2023-05-21T09:19:15.083Z,507.00
2023-05-21T09:20:15.193Z,501.00
2023-05-21T09:21:15.075Z,505.00
2023-05-21T09:22:15.145Z,510.00
2023-05-21T09:23:15.188Z,506.00
2023-05-21T09:24:15.211Z,504.00
2023-05-21T09:25:15.255Z,512.00
2023-05-21T09:26:15.302Z,516.00
2023-05-21T09:27:15.357Z,505.00
2023-05-21T09:28:15.432Z,500.00
2023-05-21T09:29:15.471Z,510.00
2023-05-21T09:30:15.563Z,505.00
2023-05-21T09:31:15.642Z,503.00
2023-05-21T09:32:15.596Z,511.00
2023-05-21T09:33:15.678Z,510.00
2023-05-21T09:34:15.740Z,508.00
2023-05-21T09:35:15.815Z,501.00
2023-05-21T09:36:15.821Z,505.00
2023-05-21T09:37:26.700Z,509.00
2023-05-21T09:38:16.838Z,509.00
2023-05-21T09:39:15.835Z,510.00
2023-05-21T09:40:15.816Z,506.00
2023-05-21T09:41:18.498Z,511.00
2023-05-21T09:42:16.835Z,509.00
2023-05-21T09:43:15.810Z,508.00
2023-05-21T09:44:15.854Z,503.00
2023-05-21T09:45:15.829Z,504.00
2023-05-21T09:46:15.781Z,499.00
2023-05-21T09:47:15.778Z,504.00
2023-05-21T09:48:15.762Z,509.00
2023-05-21T09:49:15.764Z,500.00
2023-05-21T09:50:15.768Z,499.00
2023-05-21T09:51:15.795Z,513.00
2023-05-21T09:52:15.764Z,501.00
2023-05-21T09:53:15.768Z,507.00
2023-05-21T09:54:15.782Z,509.00
2023-05-21T09:55:15.781Z,507.00
2023-05-21T09:56:15.819Z,505.00
2023-05-21T09:57:15.842Z,508.00
2023-05-21T09:58:15.888Z,502.00
2023-05-21T09:59:15.947Z,510.00
2023-05-21T10:00:15.980Z,507.00
2023-05-21T10:01:16.058Z,505.00
2023-05-21T10:02:16.172Z,507.00
2023-05-21T10:03:16.112Z,508.00
2023-05-21T10:04:16.146Z,504.00
2023-05-21T10:05:16.197Z,506.00
2023-05-21T10:06:16.221Z,505.00
2023-05-21T10:07:16.246Z,504.00
2023-05-21T10:08:16.305Z,509.00
2023-05-21T10:09:16.364Z,503.00
2023-05-21T10:10:16.392Z,508.00
2023-05-21T10:11:16.411Z,504.00
2023-05-21T10:12:16.432Z,503.00
2023-05-21T10:13:16.467Z,508.00
2023-05-21T10:14:16.516Z,500.00
2023-05-21T10:15:16.546Z,510.00
2023-05-21T10:16:16.653Z,505.00
2023-05-21T10:17:16.600Z,508.00
2023-05-21T10:18:16.631Z,506.00
2023-05-21T10:19:16.699Z,508.00
2023-05-21T10:20:16.745Z,511.00
2023-05-21T10:21:16.745Z,505.00
2023-05-21T10:22:16.801Z,500.00
2023-05-21T10:23:16.814Z,509.00
2023-05-21T10:24:16.875Z,507.00
2023-05-21T10:25:16.940Z,508.00
2023-05-21T10:26:16.977Z,500.00
2023-05-21T10:27:16.982Z,513.00
2023-05-21T10:28:17.016Z,500.00
2023-05-21T10:29:19.381Z,511.00
2023-05-21T10:30:17.090Z,513.00
2023-05-21T10:31:17.017Z,511.00
2023-05-21T10:32:17.146Z,505.00
2023-05-21T10:33:17.065Z,502.00
2023-05-21T10:34:16.974Z,505.00
2023-05-21T10:35:16.977Z,505.00
2023-05-21T10:36:17.024Z,504.00
2023-05-21T10:37:16.993Z,510.00
2023-05-21T10:38:16.995Z,509.00
2023-05-21T10:39:16.981Z,510.00
2023-05-21T10:40:16.984Z,507.00
2023-05-21T10:41:16.927Z,511.00
2023-05-21T10:42:16.953Z,506.00
2023-05-21T10:43:16.909Z,510.00
2023-05-21T10:44:16.959Z,510.00
2023-05-21T10:45:16.929Z,507.00
2023-05-21T10:46:16.995Z,503.00
2023-05-21T10:47:16.877Z,507.00
2023-05-21T10:48:16.945Z,509.00
2023-05-21T10:49:16.890Z,511.00
2023-05-21T10:50:16.903Z,500.00
2023-05-21T10:51:16.854Z,503.00
2023-05-21T10:52:16.873Z,503.00
2023-05-21T10:53:16.874Z,508.00
2023-05-21T10:54:16.888Z,509.00
2023-05-21T10:55:16.861Z,500.00
2023-05-21T10:56:16.840Z,507.00
2023-05-21T10:57:16.861Z,505.00
2023-05-21T10:58:16.851Z,510.00
2023-05-21T10:59:16.845Z,502.00
2023-05-21T11:00:16.810Z,506.00
2023-05-21T11:01:16.921Z,506.00
2023-05-21T11:02:16.843Z,504.00
2023-05-21T11:03:16.909Z,510.00
2023-05-21T11:04:16.814Z,508.00
2023-05-21T11:05:16.797Z,514.00
2023-05-21T11:06:16.804Z,510.00
2023-05-21T11:07:16.766Z,506.00
2023-05-21T11:08:16.770Z,507.00
2023-05-21T11:09:16.776Z,510.00
2023-05-21T11:10:16.773Z,510.00
2023-05-21T11:11:16.749Z,503.00
2023-05-21T11:12:16.745Z,510.00
2023-05-21T11:13:16.802Z,505.00
2023-05-21T11:14:16.770Z,502.00
2023-05-21T11:15:16.712Z,505.00
2023-05-21T11:16:16.714Z,505.00
2023-05-21T11:17:16.863Z,507.00
2023-05-21T11:18:16.709Z,506.00
2023-05-21T11:19:16.798Z,509.00
2023-05-21T11:20:16.751Z,505.00
2023-05-21T11:21:16.700Z,516.00
2023-05-21T11:22:16.680Z,505.00
2023-05-21T11:23:16.691Z,511.00
2023-05-21T11:24:16.683Z,508.00
2023-05-21T11:25:16.673Z,506.00
2023-05-21T11:26:16.644Z,507.00
2023-05-21T11:27:16.657Z,506.00
2023-05-21T11:28:16.659Z,507.00
2023-05-21T11:29:16.629Z,504.00
2023-05-21T11:30:16.637Z,511.00
2023-05-21T11:31:16.673Z,508.00
2023-05-21T11:32:16.621Z,504.00
2023-05-21T11:33:16.601Z,501.00
2023-05-21T11:34:16.613Z,505.00
2023-05-21T11:35:16.619Z,508.00
2023-05-21T11:36:16.606Z,503.00
2023-05-21T11:37:16.604Z,500.00
2023-05-21T11:38:16.570Z,512.00
2023-05-21T11:39:16.588Z,506.00
2023-05-21T11:40:16.573Z,507.00
2023-05-21T11:41:16.595Z,504.00
2023-05-21T11:42:16.567Z,502.00
2023-05-21T11:43:16.574Z,511.00
2023-05-21T11:44:16.555Z,506.00
2023-05-21T11:45:16.531Z,507.00
2023-05-21T11:46:16.565Z,508.00
2023-05-21T11:47:16.526Z,507.00
2023-05-21T11:48:16.500Z,507.00
2023-05-21T11:49:16.482Z,505.00
2023-05-21T11:50:16.503Z,500.00
2023-05-21T11:51:16.465Z,503.00
2023-05-21T11:52:16.512Z,510.00
2023-05-21T11:53:16.484Z,507.00
2023-05-21T11:54:16.488Z,503.00
2023-05-21T11:55:16.497Z,507.00
2023-05-21T11:56:16.457Z,509.00
2023-05-21T11:57:16.480Z,503.00
2023-05-21T11:58:16.479Z,507.00
2023-05-21T11:59:18.665Z,505.00
2023-05-21T12:00:16.525Z,513.00
2023-05-21T12:01:16.548Z,510.00
2023-05-21T12:02:16.554Z,512.00
2023-05-21T12:03:16.649Z,512.00
2023-05-21T12:04:16.539Z,506.00
2023-05-21T12:05:16.554Z,504.00
2023-05-21T12:06:16.586Z,506.00
2023-05-21T12:07:16.558Z,512.00
2023-05-21T12:08:16.557Z,504.00
2023-05-21T12:09:16.562Z,507.00
2023-05-21T12:10:16.544Z,500.00
2023-05-21T12:11:16.558Z,508.00
2023-05-21T12:12:16.544Z,514.00
2023-05-21T12:13:16.527Z,511.00
2023-05-21T12:14:16.590Z,504.00
2023-05-21T12:15:16.582Z,506.00
2023-05-21T12:16:16.565Z,507.00
2023-05-21T12:17:16.579Z,507.00
2023-05-21T12:18:16.573Z,503.00
2023-05-21T12:19:16.586Z,510.00
2023-05-21T12:20:16.631Z,504.00
2023-05-21T12:21:16.534Z,513.00
2023-05-21T12:22:16.556Z,507.00
2023-05-21T12:23:16.564Z,503.00
2023-05-21T12:24:16.539Z,509.00
2023-05-21T12:25:16.578Z,507.00
2023-05-21T12:26:16.563Z,506.00
2023-05-21T12:27:16.624Z,504.00
2023-05-21T12:28:16.547Z,515.00
2023-05-21T12:29:16.544Z,505.00
2023-05-21T12:30:16.541Z,511.00
2023-05-21T12:31:16.594Z,515.00
2023-05-21T12:32:16.568Z,513.00
2023-05-21T12:33:16.552Z,509.00
2023-05-21T12:34:16.560Z,513.00
2023-05-21T12:35:16.584Z,510.00
2023-05-21T12:36:16.561Z,511.00
2023-05-21T12:37:16.556Z,511.00
2023-05-21T12:38:16.578Z,506.00
2023-05-21T12:39:16.625Z,509.00
2023-05-21T12:40:16.675Z,507.00
2023-05-21T12:41:16.670Z,507.00
2023-05-21T12:42:16.704Z,508.00
2023-05-21T12:43:16.766Z,512.00
2023-05-21T12:44:16.779Z,508.00
2023-05-21T12:45:16.801Z,505.00
2023-05-21T12:46:16.913Z,512.00
2023-05-21T12:47:16.852Z,509.00
2023-05-21T12:48:16.929Z,510.00
2023-05-21T12:49:16.954Z,510.00
2023-05-21T12:50:16.920Z,508.00
2023-05-21T12:51:16.948Z,509.00
2023-05-21T12:52:17.001Z,505.00
2023-05-21T12:53:17.021Z,508.00
2023-05-21T12:54:17.041Z,516.00
2023-05-21T12:55:17.148Z,511.00
2023-05-21T12:56:17.120Z,509.00
2023-05-21T12:57:17.168Z,508.00
2023-05-21T12:58:17.187Z,512.00
2023-05-21T12:59:17.251Z,505.00
2023-05-21T13:00:17.289Z,510.00
